Airfield :
LOGIN :

Register | Disclaimer

   EN    FR    IT 

 










Legend :    VFR   Marginal VFR   IFR   Intensive IFR   Very Intensive IFR
Visi :
Ceiling :
>= 8 km
>= 3000ft
5 to 8 km
1000 to 3000 ft
1500m to 5 km
500 to 1000 ft
800 to 1500m
200 to 500 ft
< 800m
< 200 ft
Symbols :   Thunderstorms  Fog  Heavy snow  Heavy precipitations  Wind > 20 kt
SIGMETs :     Misc.  Thunderstorms  Icing  Turbulence  Mountain Waves  Volcanic Ashes







- Airport Elevation : 333 ft


LIPL - Ghedi Brescia (Mil)

CURRENT METAR :
  • 262055Z 09007KT 9999 SCT045 17/14 Q1013 RMK BKN SCT100 VIS MIN 9999 WIND THR31 08006KT WIND THR13 07005KT BLU

EXPIRED METARs :
  • 261955Z 07005KT 9999 SCT040 18/15 Q1013
  • 261855Z 12006KT 9999 SCT040 20/15 Q1012 RMK BKN SCT090 VIS MIN 9999 WIND THR31 12007KT WIND THR13 12006KT BLU

TAF TAF LIPL
Valid from the 26 at 21:00 until the 27 at 06:00 UTC


262000Z 2621/2706 12008KT 9999 SCT030 BKN050
TEMPO 2700/2706 5000 RA
No reported NOTAMs for that airfield.



MET'MAP, your aeronautical weather chart ! - Copyright ORBIFLY December 2007 - Disclaimer

ORBIFLY MET'MAP TEAM :

Programming & Development : Alexandra Zaïnal
Concept & Development : Baudouin d'Aumeries
Co-Development & Prog : Marc-Olivier Méhu
Technical & hardware support : Manuel Goepfert

Contact : metmap@orbifly.com




SOURCES & CREDITS :

   NOAA